sensor_id;sensor_type;location;lat;lon;timestamp;P1;P2;P0
72031;PMS5003;49185;42.320;23.198;2022-11-20T00:51:26;0.00;0.00;0.00
72031;PMS5003;49185;42.320;23.198;2022-11-20T00:54:12;0.00;0.00;0.00
72031;PMS5003;49185;42.320;23.198;2022-11-20T00:56:58;0.00;0.00;0.00
72031;PMS5003;49185;42.320;23.198;2022-11-20T00:59:44;0.00;0.00;0.00
72031;PMS5003;49185;42.320;23.198;2022-11-20T01:25:11;0.00;0.00;0.00
72031;PMS5003;49185;42.320;23.198;2022-11-20T01:27:37;0.00;0.00;0.00
72031;PMS5003;49185;42.320;23.198;2022-11-20T01:30:02;0.00;0.00;0.00
72031;PMS5003;49185;42.320;23.198;2022-11-20T01:32:28;0.00;0.00;0.00
72031;PMS5003;49185;42.320;23.198;2022-11-20T01:34:53;0.00;0.00;0.00
72031;PMS5003;49185;42.320;23.198;2022-11-20T01:37:19;0.00;0.00;0.00
72031;PMS5003;49185;42.320;23.198;2022-11-20T01:39:44;0.00;0.00;0.00
72031;PMS5003;49185;42.320;23.198;2022-11-20T01:42:09;0.00;0.00;0.00
72031;PMS5003;49185;42.320;23.198;2022-11-20T01:44:43;0.00;0.00;0.00
72031;PMS5003;49185;42.320;23.198;2022-11-20T01:47:14;0.00;0.00;0.00
72031;PMS5003;49185;42.320;23.198;2022-11-20T01:50:03;0.00;0.00;0.00
72031;PMS5003;49185;42.320;23.198;2022-11-20T01:52:41;0.00;0.00;0.00
72031;PMS5003;49185;42.320;23.198;2022-11-20T01:55:12;0.00;0.00;0.00
72031;PMS5003;49185;42.320;23.198;2022-11-20T01:57:41;0.00;0.00;0.00
72031;PMS5003;49185;42.320;23.198;2022-11-20T02:00:11;0.00;0.00;0.00
72031;PMS5003;49185;42.320;23.198;2022-11-20T02:02:39;0.00;0.00;0.00
72031;PMS5003;49185;42.320;23.198;2022-11-20T02:05:11;0.00;0.00;0.00
72031;PMS5003;49185;42.320;23.198;2022-11-20T02:07:43;0.00;0.00;0.00
72031;PMS5003;49185;42.320;23.198;2022-11-20T02:10:10;0.00;0.00;0.00
72031;PMS5003;49185;42.320;23.198;2022-11-20T02:12:36;0.00;0.00;0.00
72031;PMS5003;49185;42.320;23.198;2022-11-20T02:15:01;0.00;0.00;0.00
72031;PMS5003;49185;42.320;23.198;2022-11-20T02:17:27;0.00;0.00;0.00
72031;PMS5003;49185;42.320;23.198;2022-11-20T02:19:53;0.00;0.00;0.00
72031;PMS5003;49185;42.320;23.198;2022-11-20T02:22:28;0.00;0.00;0.00
72031;PMS5003;49185;42.320;23.198;2022-11-20T02:25:03;0.00;0.00;0.00
72031;PMS5003;49185;42.320;23.198;2022-11-20T02:27:30;0.00;0.00;0.00
72031;PMS5003;49185;42.320;23.198;2022-11-20T02:30:03;0.00;0.00;0.00
72031;PMS5003;49185;42.320;23.198;2022-11-20T02:32:31;0.00;0.00;0.00
72031;PMS5003;49185;42.320;23.198;2022-11-20T02:35:45;0.00;0.00;0.00
72031;PMS5003;49185;42.320;23.198;2022-11-20T02:37:45;0.00;0.00;0.00
72031;PMS5003;49185;42.320;23.198;2022-11-20T02:40:13;0.00;0.00;0.00
72031;PMS5003;49185;42.320;23.198;2022-11-20T02:42:39;0.00;0.00;0.00
72031;PMS5003;49185;42.320;23.198;2022-11-20T02:45:05;0.00;0.00;0.00
72031;PMS5003;49185;42.320;23.198;2022-11-20T02:47:31;0.00;0.00;0.00
72031;PMS5003;49185;42.320;23.198;2022-11-20T02:49:57;0.00;0.00;0.00
72031;PMS5003;49185;42.320;23.198;2022-11-20T03:05:37;0.00;0.00;0.00
72031;PMS5003;49185;42.320;23.198;2022-11-20T03:08:02;0.00;0.00;0.00
72031;PMS5003;49185;42.320;23.198;2022-11-20T03:10:27;0.00;0.00;0.00
72031;PMS5003;49185;42.320;23.198;2022-11-20T03:12:53;0.00;0.00;0.00
72031;PMS5003;49185;42.320;23.198;2022-11-20T03:15:20;0.00;0.00;0.00
72031;PMS5003;49185;42.320;23.198;2022-11-20T03:17:45;0.00;0.00;0.00
72031;PMS5003;49185;42.320;23.198;2022-11-20T03:20:10;0.00;0.00;0.00
72031;PMS5003;49185;42.320;23.198;2022-11-20T03:22:36;0.00;0.00;0.00
72031;PMS5003;49185;42.320;23.198;2022-11-20T03:25:02;0.00;0.00;0.00
72031;PMS5003;49185;42.320;23.198;2022-11-20T03:27:31;0.00;0.00;0.00
72031;PMS5003;49185;42.320;23.198;2022-11-20T03:29:57;0.00;0.00;0.00
72031;PMS5003;49185;42.320;23.198;2022-11-20T03:32:23;0.00;0.00;0.00
72031;PMS5003;49185;42.320;23.198;2022-11-20T03:34:48;0.00;0.00;0.00
72031;PMS5003;49185;42.320;23.198;2022-11-20T03:37:13;0.00;0.00;0.00
72031;PMS5003;49185;42.320;23.198;2022-11-20T03:39:39;0.00;0.00;0.00
72031;PMS5003;49185;42.320;23.198;2022-11-20T03:42:04;0.00;0.00;0.00
72031;PMS5003;49185;42.320;23.198;2022-11-20T03:44:30;0.00;0.00;0.00
72031;PMS5003;49185;42.320;23.198;2022-11-20T03:46:55;0.00;0.00;0.00
72031;PMS5003;49185;42.320;23.198;2022-11-20T03:49:21;0.00;0.00;0.00
72031;PMS5003;49185;42.320;23.198;2022-11-20T03:51:46;0.00;0.00;0.00
72031;PMS5003;49185;42.320;23.198;2022-11-20T03:54:12;0.00;0.00;0.00
72031;PMS5003;49185;42.320;23.198;2022-11-20T03:56:37;0.00;0.00;0.00
72031;PMS5003;49185;42.320;23.198;2022-11-20T03:59:04;0.00;0.00;0.00
72031;PMS5003;49185;42.320;23.198;2022-11-20T04:01:31;0.00;0.00;0.00
72031;PMS5003;49185;42.320;23.198;2022-11-20T04:04:00;0.00;0.00;0.00
72031;PMS5003;49185;42.320;23.198;2022-11-20T04:06:28;0.00;0.00;0.00
72031;PMS5003;49185;42.320;23.198;2022-11-20T04:08:56;0.00;0.00;0.00
72031;PMS5003;49185;42.320;23.198;2022-11-20T04:11:23;0.00;0.00;0.00
72031;PMS5003;49185;42.320;23.198;2022-11-20T04:13:54;0.00;0.00;0.00
72031;PMS5003;49185;42.320;23.198;2022-11-20T04:16:21;0.00;0.00;0.00
72031;PMS5003;49185;42.320;23.198;2022-11-20T04:18:51;0.00;0.00;0.00
72031;PMS5003;49185;42.320;23.198;2022-11-20T04:21:20;0.00;0.00;0.00
72031;PMS5003;49185;42.320;23.198;2022-11-20T04:23:46;0.00;0.00;0.00
72031;PMS5003;49185;42.320;23.198;2022-11-20T04:26:11;0.00;0.00;0.00
72031;PMS5003;49185;42.320;23.198;2022-11-20T04:28:38;0.00;0.00;0.00
72031;PMS5003;49185;42.320;23.198;2022-11-20T04:33:32;1.00;0.00;0.00
72031;PMS5003;49185;42.320;23.198;2022-11-20T04:36:03;0.00;0.00;0.00
72031;PMS5003;49185;42.320;23.198;2022-11-20T04:38:31;0.00;0.00;0.00
72031;PMS5003;49185;42.320;23.198;2022-11-20T04:40:57;1.00;1.00;0.00
72031;PMS5003;49185;42.320;23.198;2022-11-20T04:43:27;2.00;1.50;0.00
72031;PMS5003;49185;42.320;23.198;2022-11-20T04:45:53;0.00;0.00;0.00
72031;PMS5003;49185;42.320;23.198;2022-11-20T04:48:19;1.00;0.00;0.00
72031;PMS5003;49185;42.320;23.198;2022-11-20T04:50:45;1.00;1.00;0.00
72031;PMS5003;49185;42.320;23.198;2022-11-20T04:53:11;1.00;1.00;0.00
72031;PMS5003;49185;42.320;23.198;2022-11-20T04:55:36;0.50;0.50;0.00
72031;PMS5003;49185;42.320;23.198;2022-11-20T04:58:02;1.67;1.67;0.00
72031;PMS5003;49185;42.320;23.198;2022-11-20T05:00:27;0.00;0.00;0.00
72031;PMS5003;49185;42.320;23.198;2022-11-20T05:02:53;1.00;1.00;0.00
72031;PMS5003;49185;42.320;23.198;2022-11-20T05:05:18;0.00;0.00;0.00
72031;PMS5003;49185;42.320;23.198;2022-11-20T05:07:43;2.00;1.00;0.00
72031;PMS5003;49185;42.320;23.198;2022-11-20T05:10:09;1.00;0.00;0.00
72031;PMS5003;49185;42.320;23.198;2022-11-20T05:12:34;3.00;1.00;0.00
72031;PMS5003;49185;42.320;23.198;2022-11-20T05:15:00;1.00;1.00;0.00
72031;PMS5003;49185;42.320;23.198;2022-11-20T05:17:25;1.33;1.33;0.00
72031;PMS5003;49185;42.320;23.198;2022-11-20T05:19:51;2.00;1.00;0.00
72031;PMS5003;49185;42.320;23.198;2022-11-20T05:22:16;1.00;0.00;0.00
72031;PMS5003;49185;42.320;23.198;2022-11-20T05:24:41;1.00;0.00;0.00
72031;PMS5003;49185;42.320;23.198;2022-11-20T05:27:07;0.00;0.00;0.00
72031;PMS5003;49185;42.320;23.198;2022-11-20T05:29:32;1.00;1.00;0.00
72031;PMS5003;49185;42.320;23.198;2022-11-20T05:31:58;3.33;1.00;0.00
72031;PMS5003;49185;42.320;23.198;2022-11-20T05:34:23;3.00;2.00;0.00
72031;PMS5003;49185;42.320;23.198;2022-11-20T05:36:48;3.00;2.00;0.00
72031;PMS5003;49185;42.320;23.198;2022-11-20T05:39:14;1.33;1.00;0.00
72031;PMS5003;49185;42.320;23.198;2022-11-20T05:41:39;2.00;2.00;0.00
72031;PMS5003;49185;42.320;23.198;2022-11-20T05:44:05;1.00;1.00;0.00
72031;PMS5003;49185;42.320;23.198;2022-11-20T05:46:30;1.00;1.00;0.00
72031;PMS5003;49185;42.320;23.198;2022-11-20T05:48:56;4.00;2.00;0.00
72031;PMS5003;49185;42.320;23.198;2022-11-20T05:51:22;3.00;2.00;0.00
72031;PMS5003;49185;42.320;23.198;2022-11-20T05:53:48;3.00;2.00;0.00
72031;PMS5003;49185;42.320;23.198;2022-11-20T05:56:15;1.67;1.00;0.00
72031;PMS5003;49185;42.320;23.198;2022-11-20T05:58:43;2.00;0.25;0.00
72031;PMS5003;49185;42.320;23.198;2022-11-20T06:01:10;4.75;3.75;0.00
72031;PMS5003;49185;42.320;23.198;2022-11-20T06:03:36;5.00;4.00;1.00
72031;PMS5003;49185;42.320;23.198;2022-11-20T06:06:03;2.00;2.00;1.00
72031;PMS5003;49185;42.320;23.198;2022-11-20T06:08:30;3.00;3.00;0.00
72031;PMS5003;49185;42.320;23.198;2022-11-20T06:10:56;1.50;1.50;0.00
72031;PMS5003;49185;42.320;23.198;2022-11-20T06:13:21;2.00;2.00;0.00
72031;PMS5003;49185;42.320;23.198;2022-11-20T06:15:48;2.00;2.00;0.00
72031;PMS5003;49185;42.320;23.198;2022-11-20T06:18:14;2.50;1.50;0.00
72031;PMS5003;49185;42.320;23.198;2022-11-20T06:20:40;0.00;0.00;0.00
72031;PMS5003;49185;42.320;23.198;2022-11-20T06:23:05;0.00;0.00;0.00
72031;PMS5003;49185;42.320;23.198;2022-11-20T06:25:31;0.00;0.00;0.00
72031;PMS5003;49185;42.320;23.198;2022-11-20T06:27:56;0.00;0.00;0.00
72031;PMS5003;49185;42.320;23.198;2022-11-20T06:30:22;0.00;0.00;0.00
72031;PMS5003;49185;42.320;23.198;2022-11-20T06:32:47;0.00;0.00;0.00
72031;PMS5003;49185;42.320;23.198;2022-11-20T06:35:12;0.00;0.00;0.00
72031;PMS5003;49185;42.320;23.198;2022-11-20T06:37:38;0.00;0.00;0.00
72031;PMS5003;49185;42.320;23.198;2022-11-20T06:40:03;0.00;0.00;0.00
72031;PMS5003;49185;42.320;23.198;2022-11-20T06:42:29;1.25;0.00;0.00
72031;PMS5003;49185;42.320;23.198;2022-11-20T06:44:55;2.00;0.00;0.00
72031;PMS5003;49185;42.320;23.198;2022-11-20T06:47:20;1.00;1.00;0.00
72031;PMS5003;49185;42.320;23.198;2022-11-20T06:49:46;0.00;0.00;0.00
72031;PMS5003;49185;42.320;23.198;2022-11-20T06:52:11;0.00;0.00;0.00
72031;PMS5003;49185;42.320;23.198;2022-11-20T06:54:37;0.00;0.00;0.00
72031;PMS5003;49185;42.320;23.198;2022-11-20T06:57:02;0.00;0.00;0.00
72031;PMS5003;49185;42.320;23.198;2022-11-20T06:59:28;0.00;0.00;0.00
72031;PMS5003;49185;42.320;23.198;2022-11-20T07:01:53;0.00;0.00;0.00
72031;PMS5003;49185;42.320;23.198;2022-11-20T07:04:18;0.00;0.00;0.00
72031;PMS5003;49185;42.320;23.198;2022-11-20T07:06:44;0.00;0.00;0.00
72031;PMS5003;49185;42.320;23.198;2022-11-20T07:09:09;0.00;0.00;0.00
72031;PMS5003;49185;42.320;23.198;2022-11-20T07:11:37;0.00;0.00;0.00
72031;PMS5003;49185;42.320;23.198;2022-11-20T07:14:03;0.00;0.00;0.00
72031;PMS5003;49185;42.320;23.198;2022-11-20T07:16:28;0.00;0.00;0.00
72031;PMS5003;49185;42.320;23.198;2022-11-20T07:18:54;0.00;0.00;0.00
72031;PMS5003;49185;42.320;23.198;2022-11-20T07:21:19;0.00;0.00;0.00
72031;PMS5003;49185;42.320;23.198;2022-11-20T07:23:44;0.00;0.00;0.00
72031;PMS5003;49185;42.320;23.198;2022-11-20T07:26:10;0.00;0.00;0.00
72031;PMS5003;49185;42.320;23.198;2022-11-20T07:28:36;0.00;0.00;0.00
72031;PMS5003;49185;42.320;23.198;2022-11-20T07:31:02;0.00;0.00;0.00
72031;PMS5003;49185;42.320;23.198;2022-11-20T07:33:28;0.00;0.00;0.00
72031;PMS5003;49185;42.320;23.198;2022-11-20T07:35:54;0.00;0.00;0.00
72031;PMS5003;49185;42.320;23.198;2022-11-20T07:38:19;0.00;0.00;0.00
72031;PMS5003;49185;42.320;23.198;2022-11-20T07:40:45;0.00;0.00;0.00
72031;PMS5003;49185;42.320;23.198;2022-11-20T07:43:10;1.00;0.00;0.00
72031;PMS5003;49185;42.320;23.198;2022-11-20T07:45:36;0.00;0.00;0.00
72031;PMS5003;49185;42.320;23.198;2022-11-20T07:48:01;0.00;0.00;0.00
72031;PMS5003;49185;42.320;23.198;2022-11-20T07:50:27;0.00;0.00;0.00
72031;PMS5003;49185;42.320;23.198;2022-11-20T07:52:52;0.00;0.00;0.00
72031;PMS5003;49185;42.320;23.198;2022-11-20T07:55:25;0.00;0.00;0.00
72031;PMS5003;49185;42.320;23.198;2022-11-20T07:57:55;0.00;0.00;0.00
72031;PMS5003;49185;42.320;23.198;2022-11-20T08:00:20;0.00;0.00;0.00
72031;PMS5003;49185;42.320;23.198;2022-11-20T08:02:46;1.00;0.00;0.00
72031;PMS5003;49185;42.320;23.198;2022-11-20T08:05:11;0.00;0.00;0.00
72031;PMS5003;49185;42.320;23.198;2022-11-20T08:07:37;1.67;0.67;0.00
72031;PMS5003;49185;42.320;23.198;2022-11-20T08:10:04;0.00;0.00;0.00
72031;PMS5003;49185;42.320;23.198;2022-11-20T08:12:30;0.00;0.00;0.00
72031;PMS5003;49185;42.320;23.198;2022-11-20T08:14:56;1.33;1.33;0.00
72031;PMS5003;49185;42.320;23.198;2022-11-20T08:17:21;0.00;0.00;0.00
72031;PMS5003;49185;42.320;23.198;2022-11-20T08:19:46;1.00;0.00;0.00
72031;PMS5003;49185;42.320;23.198;2022-11-20T08:22:12;1.67;0.00;0.00
72031;PMS5003;49185;42.320;23.198;2022-11-20T08:24:38;2.00;2.00;0.00
72031;PMS5003;49185;42.320;23.198;2022-11-20T08:27:03;0.33;0.33;0.00
72031;PMS5003;49185;42.320;23.198;2022-11-20T08:29:29;0.00;0.00;0.00
72031;PMS5003;49185;42.320;23.198;2022-11-20T08:31:54;1.67;0.67;0.00
72031;PMS5003;49185;42.320;23.198;2022-11-20T08:34:20;1.00;0.00;0.00
72031;PMS5003;49185;42.320;23.198;2022-11-20T08:36:45;2.00;0.33;0.00
72031;PMS5003;49185;42.320;23.198;2022-11-20T08:39:11;3.00;3.00;0.00
72031;PMS5003;49185;42.320;23.198;2022-11-20T08:41:37;1.00;0.00;0.00
72031;PMS5003;49185;42.320;23.198;2022-11-20T08:44:03;2.00;2.00;0.00
72031;PMS5003;49185;42.320;23.198;2022-11-20T08:46:32;1.50;1.50;0.00
72031;PMS5003;49185;42.320;23.198;2022-11-20T08:48:59;0.50;0.50;0.00
72031;PMS5003;49185;42.320;23.198;2022-11-20T08:51:24;2.00;2.00;0.00
72031;PMS5003;49185;42.320;23.198;2022-11-20T08:53:50;2.00;2.00;0.00
72031;PMS5003;49185;42.320;23.198;2022-11-20T08:56:16;3.33;3.00;0.00
72031;PMS5003;49185;42.320;23.198;2022-11-20T08:58:42;4.00;3.00;0.00
72031;PMS5003;49185;42.320;23.198;2022-11-20T09:01:07;4.00;4.00;0.00
72031;PMS5003;49185;42.320;23.198;2022-11-20T09:03:33;5.00;4.00;0.00
72031;PMS5003;49185;42.320;23.198;2022-11-20T09:06:04;3.00;3.00;0.00
72031;PMS5003;49185;42.320;23.198;2022-11-20T09:08:32;3.00;3.00;0.00
72031;PMS5003;49185;42.320;23.198;2022-11-20T09:10:58;4.00;3.00;0.00
72031;PMS5003;49185;42.320;23.198;2022-11-20T09:13:25;5.00;4.25;0.00
72031;PMS5003;49185;42.320;23.198;2022-11-20T09:15:52;3.00;3.00;0.00
72031;PMS5003;49185;42.320;23.198;2022-11-20T09:18:19;3.00;1.00;0.00
72031;PMS5003;49185;42.320;23.198;2022-11-20T09:20:44;3.00;2.00;0.00
72031;PMS5003;49185;42.320;23.198;2022-11-20T09:23:09;3.67;2.67;0.67
72031;PMS5003;49185;42.320;23.198;2022-11-20T09:25:35;4.67;4.67;0.00
72031;PMS5003;49185;42.320;23.198;2022-11-20T09:28:00;5.00;4.00;1.00
72031;PMS5003;49185;42.320;23.198;2022-11-20T09:30:26;11.33;10.33;5.00
72031;PMS5003;49185;42.320;23.198;2022-11-20T09:32:52;7.75;6.75;3.00
72031;PMS5003;49185;42.320;23.198;2022-11-20T09:35:18;4.00;4.00;1.00
72031;PMS5003;49185;42.320;23.198;2022-11-20T09:37:44;5.00;5.00;1.00
72031;PMS5003;49185;42.320;23.198;2022-11-20T09:40:17;5.00;5.00;1.00
72031;PMS5003;49185;42.320;23.198;2022-11-20T09:48:51;6.75;6.00;0.00
72031;PMS5003;49185;42.320;23.198;2022-11-20T09:54:16;4.00;3.00;1.00
72031;PMS5003;49185;42.320;23.198;2022-11-20T09:56:50;4.00;4.00;0.00
72031;PMS5003;49185;42.320;23.198;2022-11-20T10:02:34;2.25;1.25;0.00
72031;PMS5003;49185;42.320;23.198;2022-11-20T10:07:42;3.00;2.00;0.00
72031;PMS5003;49185;42.320;23.198;2022-11-20T10:16:08;1.00;1.00;0.00
72031;PMS5003;49185;42.320;23.198;2022-11-20T10:19:05;1.25;1.25;0.00
72031;PMS5003;49185;42.320;23.198;2022-11-20T10:21:59;3.00;2.00;0.00
72031;PMS5003;49185;42.320;23.198;2022-11-20T10:33:18;2.00;2.00;0.00
72031;PMS5003;49185;42.320;23.198;2022-11-20T10:35:45;1.00;1.00;0.00
72031;PMS5003;49185;42.320;23.198;2022-11-20T10:38:21;1.00;1.00;0.00
72031;PMS5003;49185;42.320;23.198;2022-11-20T10:41:15;4.00;2.50;0.00
72031;PMS5003;49185;42.320;23.198;2022-11-20T10:43:46;3.50;3.50;0.00
72031;PMS5003;49185;42.320;23.198;2022-11-20T10:46:17;1.00;0.75;0.00
72031;PMS5003;49185;42.320;23.198;2022-11-20T10:48:45;1.00;0.00;0.00
72031;PMS5003;49185;42.320;23.198;2022-11-20T11:02:14;4.50;4.00;0.00
72031;PMS5003;49185;42.320;23.198;2022-11-20T11:04:51;2.00;2.00;0.00
72031;PMS5003;49185;42.320;23.198;2022-11-20T11:13:01;1.00;0.00;0.00
72031;PMS5003;49185;42.320;23.198;2022-11-20T11:15:28;1.00;0.00;0.00
72031;PMS5003;49185;42.320;23.198;2022-11-20T11:18:01;1.00;1.00;0.00
72031;PMS5003;49185;42.320;23.198;2022-11-20T11:20:26;0.00;0.00;0.00
72031;PMS5003;49185;42.320;23.198;2022-11-20T11:22:56;0.00;0.00;0.00
72031;PMS5003;49185;42.320;23.198;2022-11-20T11:25:27;0.00;0.00;0.00
72031;PMS5003;49185;42.320;23.198;2022-11-20T11:27:59;0.00;0.00;0.00
72031;PMS5003;49185;42.320;23.198;2022-11-20T11:30:27;0.00;0.00;0.00
72031;PMS5003;49185;42.320;23.198;2022-11-20T11:33:04;0.00;0.00;0.00
72031;PMS5003;49185;42.320;23.198;2022-11-20T11:35:58;0.00;0.00;0.00
72031;PMS5003;49185;42.320;23.198;2022-11-20T11:38:29;0.00;0.00;0.00
72031;PMS5003;49185;42.320;23.198;2022-11-20T11:40:59;0.50;0.00;0.00
72031;PMS5003;49185;42.320;23.198;2022-11-20T11:43:27;2.00;0.00;0.00
72031;PMS5003;49185;42.320;23.198;2022-11-20T11:45:56;2.25;0.25;0.00
72031;PMS5003;49185;42.320;23.198;2022-11-20T11:48:22;0.00;0.00;0.00
72031;PMS5003;49185;42.320;23.198;2022-11-20T11:50:48;1.00;0.00;0.00
72031;PMS5003;49185;42.320;23.198;2022-11-20T11:53:17;2.00;1.00;0.00
72031;PMS5003;49185;42.320;23.198;2022-11-20T12:14:51;0.00;0.00;0.00
72031;PMS5003;49185;42.320;23.198;2022-11-20T12:17:40;2.00;0.00;0.00
72031;PMS5003;49185;42.320;23.198;2022-11-20T12:20:28;4.50;3.00;0.00
72031;PMS5003;49185;42.320;23.198;2022-11-20T12:35:04;0.00;0.00;0.00
72031;PMS5003;49185;42.320;23.198;2022-11-20T12:38:03;4.25;3.00;1.50
72031;PMS5003;49185;42.320;23.198;2022-11-20T12:43:55;26.50;24.50;14.50
72031;PMS5003;49185;42.320;23.198;2022-11-20T12:50:16;21.00;19.00;8.75
72031;PMS5003;49185;42.320;23.198;2022-11-20T12:56:09;21.75;19.25;8.00
72031;PMS5003;49185;42.320;23.198;2022-11-20T13:02:41;22.00;19.00;9.75
72031;PMS5003;49185;42.320;23.198;2022-11-20T13:05:24;24.25;21.75;12.50
72031;PMS5003;49185;42.320;23.198;2022-11-20T13:08:00;27.75;26.00;17.50
72031;PMS5003;49185;42.320;23.198;2022-11-20T13:16:00;14.00;14.00;7.00
72031;PMS5003;49185;42.320;23.198;2022-11-20T13:18:38;8.50;7.75;3.00
72031;PMS5003;49185;42.320;23.198;2022-11-20T13:23:40;5.25;5.00;2.00
72031;PMS5003;49185;42.320;23.198;2022-11-20T13:26:22;6.67;6.33;2.67
72031;PMS5003;49185;42.320;23.198;2022-11-20T13:28:59;5.75;5.00;2.00
72031;PMS5003;49185;42.320;23.198;2022-11-20T13:31:36;2.25;2.25;1.00
72031;PMS5003;49185;42.320;23.198;2022-11-20T13:34:06;7.00;7.00;0.00
72031;PMS5003;49185;42.320;23.198;2022-11-20T13:36:36;3.00;3.00;1.00
72031;PMS5003;49185;42.320;23.198;2022-11-20T13:39:01;10.00;10.00;7.00
72031;PMS5003;49185;42.320;23.198;2022-11-20T13:41:29;5.00;5.00;2.00
72031;PMS5003;49185;42.320;23.198;2022-11-20T13:43:59;5.00;5.00;2.75
72031;PMS5003;49185;42.320;23.198;2022-11-20T13:46:37;7.75;7.00;3.25
72031;PMS5003;49185;42.320;23.198;2022-11-20T13:49:08;5.75;5.00;2.00
72031;PMS5003;49185;42.320;23.198;2022-11-20T14:02:29;3.50;3.00;2.00
72031;PMS5003;49185;42.320;23.198;2022-11-20T14:04:59;3.00;3.00;0.00
72031;PMS5003;49185;42.320;23.198;2022-11-20T14:07:37;9.25;8.75;0.00
72031;PMS5003;49185;42.320;23.198;2022-11-20T14:10:18;9.00;8.00;1.00
72031;PMS5003;49185;42.320;23.198;2022-11-20T14:12:45;5.25;5.00;1.00
72031;PMS5003;49185;42.320;23.198;2022-11-20T14:17:56;6.00;4.75;2.00
72031;PMS5003;49185;42.320;23.198;2022-11-20T14:20:23;5.00;5.00;1.00
72031;PMS5003;49185;42.320;23.198;2022-11-20T14:22:53;5.00;4.00;2.00
72031;PMS5003;49185;42.320;23.198;2022-11-20T14:25:41;5.50;5.50;3.00
72031;PMS5003;49185;42.320;23.198;2022-11-20T14:28:11;2.75;2.75;0.00
72031;PMS5003;49185;42.320;23.198;2022-11-20T14:30:53;2.00;2.00;0.00
72031;PMS5003;49185;42.320;23.198;2022-11-20T14:33:19;2.00;1.00;0.00
72031;PMS5003;49185;42.320;23.198;2022-11-20T14:35:46;3.00;3.00;0.00
72031;PMS5003;49185;42.320;23.198;2022-11-20T14:38:15;16.00;14.50;8.25
72031;PMS5003;49185;42.320;23.198;2022-11-20T14:40:43;22.75;19.50;11.25
72031;PMS5003;49185;42.320;23.198;2022-11-20T14:43:17;36.50;31.75;16.00
72031;PMS5003;49185;42.320;23.198;2022-11-20T14:45:52;39.00;32.00;19.00
72031;PMS5003;49185;42.320;23.198;2022-11-20T14:48:23;41.25;33.25;19.00
72031;PMS5003;49185;42.320;23.198;2022-11-20T14:50:56;49.25;40.00;23.00
72031;PMS5003;49185;42.320;23.198;2022-11-20T14:53:23;48.25;39.00;25.00
72031;PMS5003;49185;42.320;23.198;2022-11-20T14:55:59;45.25;37.75;22.25
72031;PMS5003;49185;42.320;23.198;2022-11-20T14:58:30;29.50;27.25;18.00
72031;PMS5003;49185;42.320;23.198;2022-11-20T15:00:59;30.00;28.75;19.00
72031;PMS5003;49185;42.320;23.198;2022-11-20T15:03:32;35.25;31.00;19.00
72031;PMS5003;49185;42.320;23.198;2022-11-20T15:05:57;34.00;30.00;19.00
72031;PMS5003;49185;42.320;23.198;2022-11-20T15:08:23;30.00;24.00;16.00
72031;PMS5003;49185;42.320;23.198;2022-11-20T15:10:49;24.33;22.33;16.00
72031;PMS5003;49185;42.320;23.198;2022-11-20T15:13:19;24.25;23.50;15.00
72031;PMS5003;49185;42.320;23.198;2022-11-20T15:15:55;28.00;27.25;14.00
72031;PMS5003;49185;42.320;23.198;2022-11-20T15:18:23;42.75;35.25;21.25
72031;PMS5003;49185;42.320;23.198;2022-11-20T15:20:51;40.00;34.00;21.00
72031;PMS5003;49185;42.320;23.198;2022-11-20T15:23:20;44.50;36.25;22.25
72031;PMS5003;49185;42.320;23.198;2022-11-20T15:25:46;43.33;36.33;22.00
72031;PMS5003;49185;42.320;23.198;2022-11-20T15:28:17;38.50;34.00;22.00
72031;PMS5003;49185;42.320;23.198;2022-11-20T15:30:49;49.25;40.25;24.75
72031;PMS5003;49185;42.320;23.198;2022-11-20T15:33:15;52.25;41.75;27.00
72031;PMS5003;49185;42.320;23.198;2022-11-20T15:35:42;57.25;45.75;28.25
72031;PMS5003;49185;42.320;23.198;2022-11-20T15:38:07;63.50;50.00;32.00
72031;PMS5003;49185;42.320;23.198;2022-11-20T15:40:33;64.00;50.00;32.00
72031;PMS5003;49185;42.320;23.198;2022-11-20T15:42:58;66.33;52.33;33.67
72031;PMS5003;49185;42.320;23.198;2022-11-20T15:45:24;73.67;64.67;40.00
72031;PMS5003;49185;42.320;23.198;2022-11-20T15:47:49;57.00;46.00;29.00
72031;PMS5003;49185;42.320;23.198;2022-11-20T15:50:15;30.00;27.33;16.00
72031;PMS5003;49185;42.320;23.198;2022-11-20T15:52:42;21.00;19.00;7.50
72031;PMS5003;49185;42.320;23.198;2022-11-20T15:55:09;16.67;15.67;6.33
72031;PMS5003;49185;42.320;23.198;2022-11-20T15:57:35;13.00;11.50;5.00
72031;PMS5003;49185;42.320;23.198;2022-11-20T16:00:00;12.67;10.00;4.00
72031;PMS5003;49185;42.320;23.198;2022-11-20T16:02:26;26.33;24.33;15.67
72031;PMS5003;49185;42.320;23.198;2022-11-20T16:04:51;28.00;27.00;17.00
72031;PMS5003;49185;42.320;23.198;2022-11-20T16:07:17;14.00;11.00;4.67
72031;PMS5003;49185;42.320;23.198;2022-11-20T16:09:42;5.00;4.00;1.00
72031;PMS5003;49185;42.320;23.198;2022-11-20T16:12:08;5.00;4.00;1.00
72031;PMS5003;49185;42.320;23.198;2022-11-20T16:14:34;7.75;7.50;3.50
72031;PMS5003;49185;42.320;23.198;2022-11-20T16:17:00;4.67;3.33;1.00
72031;PMS5003;49185;42.320;23.198;2022-11-20T16:19:25;1.00;0.00;0.00
72031;PMS5003;49185;42.320;23.198;2022-11-20T16:21:51;0.00;0.00;0.00
72031;PMS5003;49185;42.320;23.198;2022-11-20T16:24:16;8.33;8.33;4.33
72031;PMS5003;49185;42.320;23.198;2022-11-20T16:26:41;21.00;18.00;11.67
72031;PMS5003;49185;42.320;23.198;2022-11-20T16:29:07;18.00;16.33;8.00
72031;PMS5003;49185;42.320;23.198;2022-11-20T16:31:33;11.33;10.33;3.00
72031;PMS5003;49185;42.320;23.198;2022-11-20T16:33:59;0.00;0.00;0.00
72031;PMS5003;49185;42.320;23.198;2022-11-20T16:36:27;0.00;0.00;0.00
72031;PMS5003;49185;42.320;23.198;2022-11-20T16:38:54;5.50;4.50;0.00
72031;PMS5003;49185;42.320;23.198;2022-11-20T16:41:22;23.50;19.50;10.25
72031;PMS5003;49185;42.320;23.198;2022-11-20T16:43:49;19.75;18.50;7.00
72031;PMS5003;49185;42.320;23.198;2022-11-20T16:46:19;16.50;16.00;5.00
72031;PMS5003;49185;42.320;23.198;2022-11-20T16:51:44;9.75;8.75;2.00
72031;PMS5003;49185;42.320;23.198;2022-11-20T16:54:09;5.00;4.33;1.00
72031;PMS5003;49185;42.320;23.198;2022-11-20T16:56:35;8.67;8.67;4.00
72031;PMS5003;49185;42.320;23.198;2022-11-20T16:59:01;15.75;15.75;10.00
72031;PMS5003;49185;42.320;23.198;2022-11-20T17:01:28;21.00;20.50;12.75
72031;PMS5003;49185;42.320;23.198;2022-11-20T17:03:55;24.00;22.00;16.50
72031;PMS5003;49185;42.320;23.198;2022-11-20T17:06:30;28.75;28.00;18.50
72031;PMS5003;49185;42.320;23.198;2022-11-20T17:08:58;29.75;28.75;19.00
72031;PMS5003;49185;42.320;23.198;2022-11-20T17:11:24;43.75;35.50;23.50
72031;PMS5003;49185;42.320;23.198;2022-11-20T17:13:51;43.00;34.00;22.50
72031;PMS5003;49185;42.320;23.198;2022-11-20T17:16:20;45.75;35.75;23.00
72031;PMS5003;49185;42.320;23.198;2022-11-20T17:18:47;49.00;38.00;24.50
72031;PMS5003;49185;42.320;23.198;2022-11-20T17:21:13;37.33;30.67;20.67
72031;PMS5003;49185;42.320;23.198;2022-11-20T17:23:39;19.00;16.67;8.00
72031;PMS5003;49185;42.320;23.198;2022-11-20T17:26:25;10.75;7.00;2.25
72031;PMS5003;49185;42.320;23.198;2022-11-20T17:28:54;23.50;18.75;11.50
72031;PMS5003;49185;42.320;23.198;2022-11-20T17:31:25;38.75;29.50;18.25
72031;PMS5003;49185;42.320;23.198;2022-11-20T17:33:52;32.00;25.75;18.00
72031;PMS5003;49185;42.320;23.198;2022-11-20T17:36:18;23.50;21.00;11.25